Time;durP1;ratioP1;P1;durP2;ratioP2;P2;SDS_P1;SDS_P2;PMS_P1;PMS_P2;Temp;Humidity;BMP_temperature;BMP_pressure;BME280_temperature;BME280_humidity;BME280_pressure;Samples;Min_cycle;Max_cycle;Signal;HPM_P1;HPM_P2
2023/10/04 03:30:47;;;;;;;3.35;2.08;;;10.20;99.90;;;;;;6034160;23;21284;-64
2023/10/04 03:33:16;;;;;;;2.28;1.30;;;10.20;99.90;;;;;;4957622;28;20229;-64
2023/10/04 03:35:44;;;;;;;3.55;1.90;;;10.20;99.90;;;;;;4954856;29;20706;-65
2023/10/04 03:38:11;;;;;;;2.35;1.77;;;10.20;99.90;;;;;;4955386;29;20221;-65
2023/10/04 03:40:39;;;;;;;2.75;1.80;;;10.20;99.90;;;;;;4950894;28;20232;-64
2023/10/04 03:43:07;;;;;;;2.20;1.80;;;10.10;99.90;;;;;;4935878;29;20215;-65
2023/10/04 03:45:35;;;;;;;3.25;2.20;;;10.10;99.90;;;;;;4935530;29;20210;-65
2023/10/04 03:48:05;;;;;;;2.55;1.55;;;10.10;99.90;;;;;;4935395;29;20219;-65
2023/10/04 03:50:32;;;;;;;2.55;1.73;;;10.10;99.90;;;;;;4935798;29;20223;-65
2023/10/04 03:52:59;;;;;;;3.08;1.85;;;10.10;99.90;;;;;;4935520;29;20240;-65
2023/10/04 03:55:26;;;;;;;2.08;1.45;;;10.10;99.90;;;;;;4929340;29;20707;-65
2023/10/04 03:57:53;;;;;;;3.42;1.63;;;10.10;99.90;;;;;;4935099;29;20604;-65
2023/10/04 04:00:22;;;;;;;2.83;1.90;;;10.10;99.90;;;;;;4935755;29;20220;-65
2023/10/04 04:02:50;;;;;;;2.13;1.58;;;10.10;99.90;;;;;;4925652;29;20663;-65
2023/10/04 04:05:21;;;;;;;2.35;1.77;;;10.00;99.90;;;;;;4935162;29;20209;-65
2023/10/04 04:07:49;;;;;;;5.80;2.35;;;10.00;99.90;;;;;;4932973;29;20207;-65
2023/10/04 04:10:17;;;;;;;7.43;1.85;;;10.00;99.90;;;;;;4952303;28;20387;-65
2023/10/04 04:12:46;;;;;;;2.97;1.80;;;10.00;99.90;;;;;;4950413;29;20211;-65
2023/10/04 04:15:14;;;;;;;3.53;2.03;;;10.00;99.90;;;;;;4951158;29;20231;-65
2023/10/04 04:17:43;;;;;;;4.00;2.10;;;10.00;99.90;;;;;;4930740;29;20218;-65
2023/10/04 04:20:14;;;;;;;1.52;1.38;;;10.00;99.90;;;;;;4924437;29;20212;-65
2023/10/04 04:22:45;;;;;;;2.53;1.83;;;10.00;99.90;;;;;;4925539;29;20221;-65
2023/10/04 04:25:15;;;;;;;3.15;2.00;;;10.00;99.90;;;;;;4923737;29;20210;-65
2023/10/04 04:27:45;;;;;;;3.17;1.77;;;10.10;99.90;;;;;;4925280;29;20216;-65
2023/10/04 04:30:16;;;;;;;2.33;2.10;;;10.10;99.90;;;;;;4919193;29;20213;-65
2023/10/04 04:32:44;;;;;;;3.78;1.58;;;10.10;99.90;;;;;;4920859;29;20686;-65
2023/10/04 04:35:15;;;;;;;2.30;1.75;;;10.10;99.90;;;;;;4918289;29;20912;-65
2023/10/04 04:37:44;;;;;;;3.25;2.05;;;10.10;99.90;;;;;;4920608;29;20658;-64
2023/10/04 04:40:17;;;;;;;2.30;1.95;;;10.10;99.90;;;;;;4912726;29;20212;-65
2023/10/04 04:42:47;;;;;;;2.55;1.80;;;10.10;99.90;;;;;;4918614;29;20668;-65
2023/10/04 04:45:25;;;;;;;1.45;1.35;;;10.10;99.90;;;;;;4918037;29;20215;-65
2023/10/04 04:47:52;;;;;;;3.22;1.55;;;10.10;99.90;;;;;;4920008;29;20209;-65
2023/10/04 04:50:22;;;;;;;3.45;2.05;;;10.10;99.90;;;;;;4918945;29;20208;-72
2023/10/04 04:52:53;;;;;;;5.38;2.05;;;10.10;99.90;;;;;;4920160;29;20245;-71
2023/10/04 04:55:22;;;;;;;2.67;1.70;;;10.00;99.90;;;;;;4918379;29;20224;-66
2023/10/04 04:57:48;;;;;;;2.38;1.80;;;10.00;99.90;;;;;;4920261;29;20235;-71
2023/10/04 05:02:57;;;;;;;1.60;1.42;;;10.00;99.90;;;;;;4935204;29;20720;-71
2023/10/04 05:05:24;;;;;;;3.80;1.83;;;9.90;99.90;;;;;;4923271;29;20613;-70
2023/10/04 05:07:52;;;;;;;2.47;1.60;;;9.90;99.90;;;;;;4920535;29;20321;-72
2023/10/04 05:10:20;;;;;;;3.72;1.90;;;9.90;99.90;;;;;;4918900;29;20691;-70
2023/10/04 05:12:47;;;;;;;3.78;2.22;;;9.90;99.90;;;;;;4920365;29;20274;-66
2023/10/04 05:15:23;;;;;;;2.20;1.80;;;9.90;99.90;;;;;;4918265;29;20231;-75
2023/10/04 05:17:50;;;;;;;2.05;1.50;;;9.90;99.90;;;;;;4920349;29;20223;-71
2023/10/04 05:20:19;;;;;;;2.50;1.40;;;9.90;99.90;;;;;;4919001;29;20209;-73
2023/10/04 05:22:46;;;;;;;2.53;2.03;;;9.90;99.90;;;;;;4920149;29;20208;-72
2023/10/04 05:25:14;;;;;;;3.85;2.08;;;9.90;99.90;;;;;;4922694;29;20207;-70
2023/10/04 05:27:42;;;;;;;4.13;2.10;;;9.80;99.90;;;;;;4922173;29;20213;-73
2023/10/04 05:30:13;;;;;;;2.35;1.52;;;9.80;99.90;;;;;;4918457;29;20264;-72
2023/10/04 05:32:41;;;;;;;3.10;2.38;;;9.80;99.90;;;;;;4920342;29;20213;-70
2023/10/04 05:35:12;;;;;;;2.08;1.80;;;9.80;99.90;;;;;;4918029;29;20735;-71
2023/10/04 05:37:39;;;;;;;2.05;1.50;;;9.80;99.90;;;;;;4919840;29;20596;-66
2023/10/04 05:40:10;;;;;;;2.83;2.30;;;9.80;99.90;;;;;;4921836;29;20212;-69
2023/10/04 05:42:38;;;;;;;4.78;1.67;;;9.70;99.90;;;;;;4922383;29;20410;-71
2023/10/04 05:45:06;;;;;;;2.53;2.20;;;9.70;99.90;;;;;;4918799;29;20780;-72
2023/10/04 05:50:10;;;;;;;2.08;1.80;;;9.70;99.90;;;;;;5341487;23;20680;-67
2023/10/04 05:52:37;;;;;;;2.35;1.73;;;9.70;99.90;;;;;;4993497;28;20228;-72
2023/10/04 05:55:05;;;;;;;2.85;2.17;;;9.70;99.90;;;;;;4997245;28;20676;-72
2023/10/04 05:57:33;;;;;;;2.47;1.80;;;9.70;99.90;;;;;;4997577;28;20251;-72
2023/10/04 06:00:07;;;;;;;2.50;1.80;;;9.70;99.90;;;;;;4999048;28;20613;-73
2023/10/04 06:02:34;;;;;;;3.33;2.08;;;9.70;99.90;;;;;;4997277;28;20235;-72
2023/10/04 06:05:02;;;;;;;2.45;2.05;;;9.70;99.90;;;;;;4998628;28;20206;-72
2023/10/04 06:07:29;;;;;;;1.88;1.58;;;9.70;99.90;;;;;;5000772;28;20237;-72
2023/10/04 06:09:56;;;;;;;2.22;1.85;;;9.70;99.90;;;;;;4995098;28;20666;-72
2023/10/04 06:12:22;;;;;;;2.85;2.00;;;9.80;99.90;;;;;;4997075;28;20230;-72
2023/10/04 06:14:49;;;;;;;2.13;1.50;;;9.80;99.90;;;;;;4996912;28;20679;-72
2023/10/04 06:17:17;;;;;;;3.65;1.85;;;9.80;99.90;;;;;;5000452;28;20277;-73
2023/10/04 06:19:44;;;;;;;2.90;2.10;;;9.80;99.90;;;;;;4998678;28;20210;-71
2023/10/04 06:22:11;;;;;;;1.95;1.60;;;9.80;99.90;;;;;;4999813;28;20243;-71
2023/10/04 06:24:41;;;;;;;2.25;1.85;;;9.80;99.90;;;;;;4999055;28;20253;-72
2023/10/04 06:27:07;;;;;;;2.60;2.30;;;9.90;99.90;;;;;;4997311;28;20213;-74
2023/10/04 06:29:34;;;;;;;2.80;2.17;;;9.90;99.90;;;;;;4997300;28;20214;-73
2023/10/04 06:32:01;;;;;;;2.38;2.03;;;10.00;99.90;;;;;;4996753;28;20241;-72
2023/10/04 06:34:29;;;;;;;2.70;2.08;;;10.00;99.90;;;;;;4996502;28;20795;-66
2023/10/04 06:36:56;;;;;;;4.50;2.35;;;10.10;99.90;;;;;;4994677;28;20209;-66
2023/10/04 06:39:22;;;;;;;2.38;1.55;;;10.20;99.90;;;;;;4995492;28;20210;-66
2023/10/04 06:41:49;;;;;;;2.63;1.80;;;10.30;99.90;;;;;;4996312;28;20265;-66
2023/10/04 06:44:16;;;;;;;4.75;2.78;;;10.40;99.90;;;;;;4996360;28;20210;-72
2023/10/04 06:46:43;;;;;;;3.15;1.73;;;10.50;99.90;;;;;;4995691;28;20209;-73
2023/10/04 06:49:09;;;;;;;3.13;1.90;;;10.60;99.90;;;;;;4998602;28;20304;-73
2023/10/04 06:51:38;;;;;;;2.33;1.80;;;10.70;99.90;;;;;;4998512;28;20226;-66
2023/10/04 06:54:05;;;;;;;2.38;1.70;;;10.80;99.90;;;;;;4996196;28;20214;-71
2023/10/04 06:56:32;;;;;;;2.70;2.03;;;10.90;99.90;;;;;;4995757;28;20628;-71
2023/10/04 06:58:58;;;;;;;4.00;2.38;;;11.10;99.90;;;;;;4996725;28;20207;-70
2023/10/04 07:01:26;;;;;;;2.33;2.03;;;11.20;99.90;;;;;;4998452;28;20246;-67
2023/10/04 07:03:52;;;;;;;2.25;1.80;;;11.40;99.90;;;;;;4996190;28;20231;-67
2023/10/04 07:06:19;;;;;;;2.13;1.60;;;11.50;99.90;;;;;;4998918;28;20747;-71
2023/10/04 07:08:48;;;;;;;2.17;1.52;;;11.70;99.90;;;;;;4997031;28;20280;-67
2023/10/04 07:11:15;;;;;;;4.68;2.60;;;11.90;99.90;;;;;;4995409;28;20282;-71
2023/10/04 07:13:43;;;;;;;3.55;2.00;;;12.10;99.90;;;;;;4995631;28;20212;-70
2023/10/04 07:16:11;;;;;;;2.30;1.58;;;12.30;99.90;;;;;;4996086;28;20230;-68
2023/10/04 07:18:38;;;;;;;1.98;1.88;;;12.50;99.90;;;;;;4998659;28;20207;-66
2023/10/04 07:21:06;;;;;;;2.07;1.67;;;12.60;99.90;;;;;;5000197;28;20227;-67
2023/10/04 07:23:33;;;;;;;1.90;1.70;;;12.80;99.90;;;;;;5001784;28;20869;-67
2023/10/04 07:26:03;;;;;;;2.43;1.70;;;13.00;99.90;;;;;;4998731;28;20506;-67
2023/10/04 07:28:30;;;;;;;3.47;1.60;;;13.20;99.90;;;;;;4998731;28;20470;-67
2023/10/04 07:30:56;;;;;;;2.53;1.40;;;13.40;99.90;;;;;;4998701;28;20227;-66
2023/10/04 07:33:23;;;;;;;2.67;1.60;;;13.60;99.90;;;;;;4998581;28;20458;-66
2023/10/04 07:35:50;;;;;;;4.20;1.70;;;13.70;99.90;;;;;;4998366;28;20486;-66
2023/10/04 07:38:17;;;;;;;2.70;1.73;;;13.90;99.90;;;;;;5001271;28;20470;-65
2023/10/04 07:40:44;;;;;;;4.33;1.70;;;14.00;99.90;;;;;;4999481;28;20489;-67
2023/10/04 07:43:13;;;;;;;2.10;1.60;;;14.10;99.90;;;;;;4998039;28;20462;-75
2023/10/04 07:45:40;;;;;;;2.33;1.70;;;14.30;99.90;;;;;;4998686;28;20464;-66
2023/10/04 07:48:10;;;;;;;2.20;1.53;;;14.50;99.90;;;;;;4999799;28;20469;-66
2023/10/04 07:50:37;;;;;;;1.50;1.40;;;14.60;99.90;;;;;;5000848;28;20495;-66
2023/10/04 07:53:06;;;;;;;3.00;2.30;;;14.70;99.90;;;;;;4998479;28;20462;-66
2023/10/04 07:55:34;;;;;;;2.00;1.50;;;14.90;99.90;;;;;;4997887;28;21089;-66
2023/10/04 07:58:03;;;;;;;4.30;2.03;;;15.10;99.90;;;;;;4998590;28;20472;-70
2023/10/04 08:00:33;;;;;;;3.10;1.60;;;15.20;99.90;;;;;;5000872;28;20502;-67
2023/10/04 08:03:00;;;;;;;2.90;1.50;;;15.40;99.90;;;;;;4997524;28;20983;-72
2023/10/04 08:05:31;;;;;;;1.73;1.30;;;15.50;99.90;;;;;;4997651;28;20468;-73
2023/10/04 08:07:58;;;;;;;3.40;1.70;;;15.70;99.90;;;;;;4994320;28;20561;-72
2023/10/04 08:10:29;;;;;;;2.87;1.23;;;15.80;99.90;;;;;;4993141;28;20463;-71
2023/10/04 08:12:59;;;;;;;3.10;1.27;;;16.00;99.90;;;;;;5001663;28;20464;-66
2023/10/04 08:15:27;;;;;;;2.70;1.40;;;16.10;99.90;;;;;;5000301;28;20569;-72
2023/10/04 08:17:56;;;;;;;4.07;2.13;;;16.20;99.90;;;;;;4993514;28;20463;-72
2023/10/04 08:20:24;;;;;;;2.47;1.60;;;16.40;99.90;;;;;;5000043;28;20587;-67
2023/10/04 08:22:51;;;;;;;7.30;2.40;;;16.50;99.90;;;;;;4997460;28;20466;-67
2023/10/04 08:25:20;;;;;;;2.80;1.70;;;16.70;99.90;;;;;;4996710;28;20465;-67
2023/10/04 08:27:47;;;;;;;2.80;1.83;;;16.80;99.90;;;;;;4996720;28;20457;-71
2023/10/04 08:30:16;;;;;;;2.47;1.63;;;16.90;99.90;;;;;;4998900;28;20473;-70
2023/10/04 08:32:44;;;;;;;2.60;1.97;;;17.00;99.90;;;;;;4998517;28;20496;-69
2023/10/04 08:35:24;;;;;;;3.63;1.80;;;17.10;99.90;;;;;;4996607;28;20842;-72
2023/10/04 08:37:53;;;;;;;2.43;1.40;;;17.20;99.90;;;;;;4996771;28;20524;-73
2023/10/04 08:40:20;;;;;;;1.67;1.27;;;17.10;99.90;;;;;;4998944;28;20534;-72
2023/10/04 08:42:50;;;;;;;1.87;1.50;;;17.20;99.90;;;;;;4997713;28;20470;-73
2023/10/04 08:45:17;;;;;;;2.90;1.20;;;17.30;99.90;;;;;;4996081;28;20472;-74
2023/10/04 08:47:50;;;;;;;1.60;1.10;;;17.40;99.90;;;;;;4996463;28;20470;-72
2023/10/04 08:50:26;;;;;;;2.80;1.37;;;17.50;99.90;;;;;;4997921;28;20497;-73
2023/10/04 08:53:01;;;;;;;2.07;1.60;;;17.60;99.90;;;;;;4996548;28;20470;-72
2023/10/04 08:55:29;;;;;;;1.40;1.30;;;17.70;99.90;;;;;;4995450;28;20832;-72
2023/10/04 08:57:59;;;;;;;2.93;1.20;;;17.80;99.90;;;;;;4991766;28;20510;-73
2023/10/04 09:00:29;;;;;;;2.80;1.37;;;17.90;99.90;;;;;;4995592;28;20494;-71
2023/10/04 09:02:57;;;;;;;2.73;1.47;;;18.00;99.90;;;;;;4991938;28;20470;-74
2023/10/04 09:05:28;;;;;;;2.60;1.53;;;18.00;99.90;;;;;;4995833;28;20462;-70
2023/10/04 09:07:55;;;;;;;3.47;1.30;;;18.10;99.90;;;;;;4991569;28;20454;-72
2023/10/04 09:10:25;;;;;;;2.67;1.27;;;18.30;99.90;;;;;;4998182;28;20548;-75
2023/10/04 09:12:52;;;;;;;3.77;1.70;;;18.30;99.90;;;;;;4996211;28;20998;-72
2023/10/04 09:15:21;;;;;;;1.70;1.40;;;18.40;99.90;;;;;;4995680;28;20467;-74
2023/10/04 09:17:56;;;;;;;2.53;1.57;;;18.40;99.90;;;;;;4995632;28;20979;-73
2023/10/04 09:20:29;;;;;;;5.23;1.70;;;18.50;99.90;;;;;;4998115;28;20545;-74
2023/10/04 09:22:55;;;;;;;2.20;1.27;;;18.60;99.90;;;;;;5000744;28;20473;-72
2023/10/04 09:25:23;;;;;;;2.30;1.20;;;18.70;99.90;;;;;;4995034;28;20461;-66
2023/10/04 09:27:55;;;;;;;4.50;1.47;;;18.70;99.90;;;;;;4995355;28;21037;-66
2023/10/04 09:30:23;;;;;;;2.63;1.40;;;18.80;99.90;;;;;;4997394;28;21031;-70
2023/10/04 09:32:51;;;;;;;1.40;1.20;;;19.00;99.90;;;;;;4996247;28;20471;-71
2023/10/04 09:35:19;;;;;;;2.70;1.10;;;19.20;99.90;;;;;;4995072;28;20551;-71
2023/10/04 09:37:48;;;;;;;1.60;1.17;;;19.30;99.90;;;;;;4995259;28;20534;-71
2023/10/04 09:40:17;;;;;;;2.50;1.23;;;19.50;99.90;;;;;;4994401;28;20513;-70
2023/10/04 09:42:49;;;;;;;2.10;1.47;;;19.60;99.90;;;;;;4995056;28;20871;-66
2023/10/04 09:45:16;;;;;;;1.57;1.40;;;19.70;99.90;;;;;;4995783;28;20531;-66
2023/10/04 09:47:43;;;;;;;2.23;1.57;;;19.80;99.90;;;;;;4996190;28;20470;-66
2023/10/04 09:50:12;;;;;;;1.50;1.30;;;19.70;99.90;;;;;;4994344;28;20531;-66
2023/10/04 09:52:39;;;;;;;1.70;1.27;;;19.80;99.90;;;;;;4994645;28;20529;-67
2023/10/04 09:55:13;;;;;;;1.87;1.20;;;20.00;99.90;;;;;;4994512;28;20552;-66
2023/10/04 09:57:44;;;;;;;1.53;1.23;;;20.10;99.90;;;;;;4992145;28;20492;-67
2023/10/04 10:00:17;;;;;;;3.67;1.90;;;20.20;99.90;;;;;;4994622;28;20473;-66
2023/10/04 10:02:47;;;;;;;1.53;1.20;;;20.20;99.90;;;;;;4995568;28;20555;-66
2023/10/04 10:05:21;;;;;;;2.43;1.73;;;19.90;99.90;;;;;;4993839;28;20500;-66
2023/10/04 10:07:51;;;;;;;2.60;1.50;;;19.60;99.90;;;;;;4994353;28;20465;-67
2023/10/04 10:10:21;;;;;;;1.30;1.10;;;19.30;99.90;;;;;;4995082;28;20464;-66
2023/10/04 10:12:50;;;;;;;1.73;1.23;;;18.90;99.90;;;;;;4995172;28;20459;-67
2023/10/04 10:15:18;;;;;;;3.00;1.77;;;18.50;99.90;;;;;;4993647;28;20544;-66
2023/10/04 10:17:46;;;;;;;1.43;1.20;;;18.20;99.90;;;;;;4993658;28;20860;-66
2023/10/04 10:20:15;;;;;;;4.13;1.97;;;17.90;99.90;;;;;;4994081;28;20994;-66
2023/10/04 10:23:08;;;;;;;1.40;1.03;;;17.70;99.90;;;;;;4995463;28;20479;-66
2023/10/04 10:25:38;;;;;;;1.77;1.30;;;17.70;99.90;;;;;;4993211;28;20465;-66
2023/10/04 10:28:19;;;;;;;1.50;1.40;;;17.80;99.90;;;;;;4994226;28;20454;-66
2023/10/04 10:30:45;;;;;;;1.93;1.30;;;17.70;99.90;;;;;;4992566;28;20488;-66
2023/10/04 10:33:13;;;;;;;3.10;1.53;;;17.60;99.90;;;;;;4993857;28;20470;-66
2023/10/04 10:35:56;;;;;;;1.30;1.20;;;17.50;99.90;;;;;;4995256;28;20462;-66
2023/10/04 10:38:47;;;;;;;5.27;1.60;;;17.40;99.90;;;;;;4993499;28;20470;-66
2023/10/04 10:41:57;;;;;;;2.10;1.70;;;17.40;99.90;;;;;;4990271;28;20482;-72
2023/10/04 10:44:30;;;;;;;1.53;1.37;;;17.50;99.90;;;;;;4991386;28;20477;-73
2023/10/04 10:46:58;;;;;;;3.20;1.20;;;17.50;99.90;;;;;;4987699;28;20487;-71
2023/10/04 10:49:42;;;;;;;3.87;1.47;;;17.80;99.90;;;;;;4993051;28;21056;-72
2023/10/04 10:52:10;;;;;;;2.27;1.33;;;18.40;99.90;;;;;;4993216;28;20478;-72
2023/10/04 10:54:37;;;;;;;1.30;1.20;;;18.80;99.90;;;;;;4998402;28;20521;-69
2023/10/04 10:57:06;;;;;;;1.43;1.20;;;19.10;99.90;;;;;;4996656;28;20490;-66
2023/10/04 10:59:34;;;;;;;1.60;1.10;;;19.30;99.90;;;;;;4996437;28;20467;-71
2023/10/04 11:02:01;;;;;;;1.20;1.07;;;19.40;99.90;;;;;;4996926;28;20495;-71
2023/10/04 11:04:28;;;;;;;1.70;1.40;;;19.60;99.90;;;;;;4996458;28;20896;-70
2023/10/04 11:06:55;;;;;;;1.90;1.40;;;19.60;99.90;;;;;;4990414;28;20461;-70
2023/10/04 11:09:22;;;;;;;1.70;1.40;;;19.30;99.90;;;;;;4997406;28;20475;-71
2023/10/04 11:11:49;;;;;;;2.30;1.37;;;18.90;99.90;;;;;;4997039;28;20496;-71
2023/10/04 11:14:20;;;;;;;1.57;1.10;;;18.50;99.90;;;;;;4996259;28;20522;-72
2023/10/04 11:16:47;;;;;;;2.00;1.23;;;18.30;99.90;;;;;;4994701;28;20487;-66
2023/10/04 11:19:15;;;;;;;2.97;1.40;;;18.10;99.90;;;;;;4996272;28;20463;-71
2023/10/04 11:21:44;;;;;;;2.73;1.23;;;18.20;99.90;;;;;;4997172;28;20585;-71
2023/10/04 11:24:14;;;;;;;3.50;2.07;;;18.60;99.90;;;;;;4996346;28;20456;-71
2023/10/04 11:26:42;;;;;;;1.70;1.20;;;19.00;99.90;;;;;;4995452;28;20859;-70
2023/10/04 11:29:10;;;;;;;1.57;1.20;;;19.40;99.90;;;;;;4996008;28;20468;-71
2023/10/04 11:31:38;;;;;;;3.20;2.00;;;19.80;99.90;;;;;;4995319;28;20903;-71
2023/10/04 11:34:05;;;;;;;2.47;1.53;;;19.80;99.90;;;;;;4995719;28;20473;-71
2023/10/04 11:36:35;;;;;;;2.10;1.20;;;20.00;99.90;;;;;;4995124;28;20489;-71
2023/10/04 11:39:09;;;;;;;2.90;1.30;;;20.20;99.90;;;;;;4995661;28;20844;-71
2023/10/04 11:41:39;;;;;;;1.97;1.67;;;20.50;99.90;;;;;;4996577;28;20574;-71
2023/10/04 11:44:07;;;;;;;1.77;1.30;;;20.70;99.90;;;;;;4995377;28;20465;-72
2023/10/04 11:46:58;;;;;;;1.73;1.20;;;20.70;99.90;;;;;;4994787;28;20475;-71
2023/10/04 11:49:24;;;;;;;1.97;1.50;;;20.30;99.90;;;;;;5061557;23;20536;-71
2023/10/04 11:51:51;;;;;;;3.40;1.50;;;20.10;99.90;;;;;;4976300;28;20482;-68
2023/10/04 11:54:18;;;;;;;2.20;1.50;;;20.00;99.90;;;;;;4995297;28;20468;-70
2023/10/04 11:56:45;;;;;;;2.60;1.50;;;20.20;99.90;;;;;;4993525;28;20478;-72
2023/10/04 11:59:13;;;;;;;2.37;1.80;;;20.20;99.90;;;;;;4993871;28;20481;-67
2023/10/04 12:01:44;;;;;;;2.53;2.27;;;20.10;99.90;;;;;;4993262;28;20492;-66
2023/10/04 12:04:14;;;;;;;1.60;1.43;;;19.80;99.90;;;;;;4993116;28;20474;-67
2023/10/04 12:06:42;;;;;;;1.77;1.30;;;19.50;99.90;;;;;;4990348;28;20569;-67
2023/10/04 12:09:09;;;;;;;2.60;1.37;;;19.50;99.90;;;;;;4990523;28;20474;-67
2023/10/04 12:11:37;;;;;;;2.30;1.40;;;19.80;99.90;;;;;;4991721;28;20990;-67
2023/10/04 12:14:05;;;;;;;2.03;1.13;;;20.10;99.90;;;;;;4994573;28;20465;-66
2023/10/04 12:16:33;;;;;;;2.30;1.47;;;20.50;99.90;;;;;;4993241;28;20483;-66
2023/10/04 12:19:02;;;;;;;1.60;1.43;;;20.70;99.90;;;;;;4993543;28;20473;-66
2023/10/04 12:21:31;;;;;;;1.70;1.30;;;20.90;99.90;;;;;;4993866;28;20481;-70
2023/10/04 12:23:58;;;;;;;1.90;1.53;;;20.90;99.90;;;;;;4986932;28;20461;-70
2023/10/04 12:26:25;;;;;;;2.33;1.20;;;20.70;99.90;;;;;;4993422;28;20457;-71
2023/10/04 12:28:51;;;;;;;2.83;1.50;;;20.60;99.90;;;;;;4993275;28;20844;-70
2023/10/04 12:31:18;;;;;;;1.83;1.10;;;20.70;99.90;;;;;;4993166;28;21030;-70
2023/10/04 12:33:46;;;;;;;1.53;1.10;;;20.80;99.90;;;;;;4993087;28;20468;-70
2023/10/04 12:36:13;;;;;;;1.40;1.10;;;21.00;99.90;;;;;;4992924;28;20466;-70
2023/10/04 12:38:41;;;;;;;1.80;1.40;;;21.20;99.90;;;;;;4993036;28;20461;-70
2023/10/04 12:41:08;;;;;;;1.77;1.33;;;21.30;99.90;;;;;;4993621;28;20486;-70
2023/10/04 12:43:36;;;;;;;2.53;1.30;;;21.10;99.90;;;;;;4993098;28;20905;-70
2023/10/04 12:46:03;;;;;;;2.20;1.50;;;20.80;99.90;;;;;;4992749;28;20525;-70
2023/10/04 12:48:30;;;;;;;1.90;1.13;;;20.50;99.90;;;;;;4992884;28;20468;-66
2023/10/04 12:50:57;;;;;;;1.50;1.20;;;20.00;99.90;;;;;;4985882;28;20486;-66
2023/10/04 12:53:25;;;;;;;1.87;1.50;;;19.70;99.90;;;;;;4993089;28;20547;-66
2023/10/04 12:55:54;;;;;;;2.20;1.50;;;19.50;99.90;;;;;;4992257;28;20469;-66
2023/10/04 12:58:21;;;;;;;3.93;1.50;;;19.50;99.90;;;;;;4992968;28;21024;-71
2023/10/04 13:00:49;;;;;;;1.90;1.27;;;19.40;99.90;;;;;;4992852;28;20485;-67
2023/10/04 13:03:16;;;;;;;3.03;1.27;;;19.30;99.90;;;;;;4992781;28;20469;-67
2023/10/04 13:05:43;;;;;;;1.47;1.20;;;19.00;99.90;;;;;;4992566;28;20469;-70
2023/10/04 13:08:15;;;;;;;1.40;1.10;;;18.70;99.90;;;;;;4992836;28;20456;-70
2023/10/04 13:10:42;;;;;;;2.17;1.13;;;18.40;99.90;;;;;;4992636;28;20492;-70
2023/10/04 13:13:12;;;;;;;1.40;1.20;;;18.30;99.90;;;;;;4993217;28;20467;-68
2023/10/04 13:15:39;;;;;;;2.20;2.00;;;18.10;99.90;;;;;;4993385;28;20477;-72
2023/10/04 13:18:08;;;;;;;2.10;1.40;;;18.10;99.90;;;;;;4993434;28;20493;-68
2023/10/04 13:20:37;;;;;;;2.53;1.40;;;18.00;99.90;;;;;;4992658;28;20490;-70
2023/10/04 13:23:05;;;;;;;3.33;1.40;;;18.00;99.90;;;;;;4992447;28;20891;-67
2023/10/04 13:25:33;;;;;;;2.80;1.30;;;18.00;99.90;;;;;;4992161;28;20467;-66
2023/10/04 13:28:01;;;;;;;2.13;1.40;;;18.00;99.90;;;;;;4992919;28;20460;-70
2023/10/04 13:30:29;;;;;;;2.43;1.70;;;18.10;99.90;;;;;;4992267;28;20487;-66
2023/10/04 13:32:57;;;;;;;2.70;1.30;;;18.20;99.90;;;;;;4984065;28;20456;-66
2023/10/04 13:35:24;;;;;;;1.47;1.17;;;18.40;99.90;;;;;;4992199;28;20528;-66
2023/10/04 13:37:53;;;;;;;2.03;1.20;;;18.60;99.90;;;;;;4991838;28;21031;-70
2023/10/04 13:40:20;;;;;;;2.33;1.37;;;18.80;99.90;;;;;;4992451;28;20472;-70
2023/10/04 13:42:50;;;;;;;6.50;1.53;;;19.00;99.90;;;;;;4992136;28;20948;-66
2023/10/04 13:45:18;;;;;;;2.13;1.70;;;19.20;99.90;;;;;;4991824;28;20474;-66
2023/10/04 13:47:46;;;;;;;2.40;1.57;;;19.30;99.90;;;;;;4991868;28;20485;-66
2023/10/04 13:50:13;;;;;;;1.13;0.90;;;19.40;99.90;;;;;;4991766;28;20476;-66
2023/10/04 13:52:40;;;;;;;1.60;1.23;;;19.30;99.90;;;;;;4991753;28;20469;-66
2023/10/04 13:55:09;;;;;;;2.40;1.40;;;19.20;99.90;;;;;;4991645;28;20899;-66
2023/10/04 13:57:36;;;;;;;2.90;1.70;;;19.10;99.90;;;;;;4991713;28;20487;-66
2023/10/04 14:00:14;;;;;;;2.63;1.20;;;19.00;99.90;;;;;;4991942;28;20466;-66
2023/10/04 14:02:41;;;;;;;1.40;1.30;;;18.90;99.90;;;;;;4991960;28;20491;-66
2023/10/04 14:05:16;;;;;;;2.40;1.67;;;18.90;99.90;;;;;;4992001;28;20477;-66
2023/10/04 14:07:44;;;;;;;1.83;1.17;;;18.80;99.90;;;;;;4991459;28;20835;-66
2023/10/04 14:10:11;;;;;;;2.23;1.33;;;18.70;99.90;;;;;;4991880;28;21029;-66
2023/10/04 14:12:38;;;;;;;1.33;1.20;;;18.60;99.90;;;;;;4991476;28;20487;-66
2023/10/04 14:15:10;;;;;;;2.03;1.50;;;18.50;99.90;;;;;;4990911;28;20467;-66
2023/10/04 14:17:38;;;;;;;2.20;1.43;;;18.40;99.90;;;;;;4991699;28;21009;-67
2023/10/04 14:20:06;;;;;;;1.40;1.30;;;18.40;99.90;;;;;;4991630;28;20500;-66
2023/10/04 14:22:35;;;;;;;1.63;1.17;;;18.40;99.90;;;;;;4991486;28;20490;-66
2023/10/04 14:25:03;;;;;;;1.37;1.03;;;18.40;99.90;;;;;;4999121;28;20813;-66
2023/10/04 14:27:30;;;;;;;1.47;1.37;;;18.20;99.90;;;;;;4995722;28;20467;-66
2023/10/04 14:29:57;;;;;;;2.87;1.60;;;18.20;99.90;;;;;;4995119;28;20485;-66
2023/10/04 14:32:23;;;;;;;1.50;1.40;;;18.20;99.90;;;;;;4995768;28;20510;-66
2023/10/04 14:34:50;;;;;;;2.67;1.57;;;18.10;99.90;;;;;;4995263;28;20466;-66
2023/10/04 14:37:18;;;;;;;2.83;1.27;;;18.10;99.90;;;;;;4995155;28;20501;-66
2023/10/04 14:39:46;;;;;;;1.57;1.47;;;18.10;99.90;;;;;;4995374;28;20467;-67
2023/10/04 14:42:13;;;;;;;1.70;1.20;;;18.10;99.90;;;;;;4995241;28;20485;-66
2023/10/04 14:44:42;;;;;;;2.23;1.50;;;18.10;99.90;;;;;;4986023;28;20967;-66
2023/10/04 14:47:09;;;;;;;1.30;1.10;;;18.10;99.90;;;;;;4994695;28;20468;-66
2023/10/04 14:49:42;;;;;;;2.00;1.20;;;18.20;99.90;;;;;;4994490;28;20952;-66
2023/10/04 14:52:09;;;;;;;1.27;1.17;;;18.20;99.90;;;;;;4988250;28;20491;-66
2023/10/04 14:54:35;;;;;;;2.50;1.40;;;18.30;99.90;;;;;;4995001;28;20463;-67
2023/10/04 14:57:04;;;;;;;2.07;1.13;;;18.30;99.90;;;;;;4994444;28;20987;-66
2023/10/04 14:59:30;;;;;;;1.60;1.13;;;18.30;99.90;;;;;;4995318;28;21098;-66
2023/10/04 15:01:57;;;;;;;2.20;1.17;;;18.40;99.90;;;;;;4994756;28;20853;-66
2023/10/04 15:04:25;;;;;;;4.43;2.00;;;18.40;99.90;;;;;;4995063;28;20467;-66
2023/10/04 15:06:52;;;;;;;3.03;1.70;;;18.20;99.90;;;;;;4994546;28;20469;-66
2023/10/04 15:09:19;;;;;;;2.33;1.07;;;18.10;99.90;;;;;;4995159;28;20461;-66
2023/10/04 15:11:45;;;;;;;1.50;1.10;;;18.00;99.90;;;;;;4994859;28;20480;-66
2023/10/04 15:14:13;;;;;;;2.70;1.23;;;17.90;99.90;;;;;;4995002;28;20464;-66
2023/10/04 15:16:40;;;;;;;2.50;1.27;;;17.80;99.90;;;;;;4994602;28;20845;-66
2023/10/04 15:19:07;;;;;;;2.00;1.50;;;17.70;99.90;;;;;;4994537;28;20480;-67
2023/10/04 15:21:36;;;;;;;2.43;1.63;;;17.60;99.90;;;;;;4994633;28;20486;-66
2023/10/04 15:24:05;;;;;;;1.43;1.20;;;17.60;99.90;;;;;;4994398;28;20995;-66
2023/10/04 15:26:33;;;;;;;1.50;1.30;;;17.50;99.90;;;;;;4994378;28;20818;-66
2023/10/04 15:29:02;;;;;;;1.63;1.43;;;17.40;99.90;;;;;;4994236;28;20470;-66
2023/10/04 15:31:31;;;;;;;1.83;1.20;;;17.20;99.90;;;;;;4994384;28;20482;-66
2023/10/04 15:33:57;;;;;;;2.60;1.47;;;17.10;99.90;;;;;;4993003;28;20462;-66
2023/10/04 15:36:25;;;;;;;1.87;1.20;;;17.00;99.90;;;;;;4993458;28;20473;-66
2023/10/04 15:38:52;;;;;;;1.93;1.30;;;17.00;99.90;;;;;;4993737;28;20994;-66
2023/10/04 15:41:18;;;;;;;1.23;1.07;;;16.90;99.90;;;;;;4994283;28;20899;-66
2023/10/04 15:43:45;;;;;;;4.90;1.60;;;17.00;99.90;;;;;;4993852;28;20458;-66
2023/10/04 15:46:12;;;;;;;2.00;1.47;;;16.90;99.90;;;;;;4993874;28;20467;-66
2023/10/04 15:48:41;;;;;;;2.60;1.53;;;16.80;99.90;;;;;;4994164;28;20486;-66
2023/10/04 15:51:08;;;;;;;2.63;1.50;;;16.80;99.90;;;;;;4987505;28;20486;-66
2023/10/04 15:53:35;;;;;;;1.70;1.10;;;16.80;99.90;;;;;;4993976;28;20466;-66
2023/10/04 15:56:01;;;;;;;1.87;1.20;;;16.70;99.90;;;;;;4993920;28;20493;-66
2023/10/04 15:58:28;;;;;;;3.63;1.30;;;16.60;99.90;;;;;;4993993;28;20482;-66
2023/10/04 16:00:56;;;;;;;1.73;1.17;;;16.50;99.90;;;;;;4993694;28;20493;-67
2023/10/04 16:03:25;;;;;;;2.10;1.53;;;16.40;99.90;;;;;;4994117;28;20470;-66
2023/10/04 16:05:53;;;;;;;2.70;1.30;;;16.40;99.90;;;;;;4993634;28;20462;-66
2023/10/04 16:08:20;;;;;;;1.50;1.20;;;16.30;99.90;;;;;;4993832;28;20469;-66
2023/10/04 16:10:47;;;;;;;4.63;1.90;;;16.20;99.90;;;;;;4993737;28;20860;-66
2023/10/04 16:13:14;;;;;;;1.50;1.30;;;16.10;99.90;;;;;;4993932;28;20902;-66
2023/10/04 16:15:41;;;;;;;7.33;1.23;;;16.00;99.90;;;;;;4994146;28;20474;-66
2023/10/04 16:18:09;;;;;;;1.50;1.20;;;16.00;99.90;;;;;;4993705;28;20494;-66
2023/10/04 16:20:36;;;;;;;2.10;1.10;;;16.00;99.90;;;;;;4993656;28;20489;-66
2023/10/04 16:23:05;;;;;;;2.17;1.40;;;15.90;99.90;;;;;;4993324;28;20465;-66
2023/10/04 16:25:34;;;;;;;3.63;1.60;;;15.80;99.90;;;;;;4993291;28;20494;-66
2023/10/04 16:28:01;;;;;;;1.83;1.20;;;15.80;99.90;;;;;;4993341;28;20465;-66
2023/10/04 16:30:28;;;;;;;1.83;1.20;;;15.70;99.90;;;;;;4993157;28;21020;-66